SBMO Informação do Aeroporto

Informação da Pista
Runway 12 Length 8537 ft width 148 ft
Elevation 387 ft Threshold 0 ft Heading 100
Runway 30 Length 8537 ft Width 148 ft
Elevation 364 ft Threshold 0 ft Heading 280
Frequencias do Aeroporto
Tipo APP Nome MACEIO APP Frequência 119.25 MHZ
Tipo TWR Nome MACEIO TWR Frequência 118.25 MHZ
Navaids Aeroporto
Tipo VOR-DME Name Zumbi Frequência 115100 KHZ
Tipo NDB Name Maceio Frequência 340 KHZ
Tempo do Aeroporto & NOTAM
ADDS - METARS form results

(1658 UTC 20 February 2020)
Data provider http://aviationweather.gov/metar/data/
 
METAR text: SBMO 201629Z 07005KT 9999 -RA SCT010 BKN015 BKN070 23/22 Q1011 RETSRA
Conditions at: SBMO (MACEIO/CAMPO PAL, BR) observed 1629 UTC 20 February 2020
Temperature: 23.0°C (73°F)
Dewpoint: 22.0°C (72°F) [RH = 94%]
Pressure (altimeter): 29.85 inches Hg (1011.0 mb)
Winds: from the ENE (70 degrees) at 6 MPH (5 knots; 2.6 m/s)
Visibility: 6 or more miles (10+ km)
Ceiling: 1500 feet AGL
Clouds: scattered clouds at 1000 feet AGL
broken clouds at 1500 feet AGL
broken clouds at 7000 feet AGL
Weather: -RA  (light rain)

METAR text: SBMO 201600Z 10012KT 2000 +TSRA OVC003 FEW010CB 23/22 Q1011
Conditions at: SBMO (MACEIO/CAMPO PAL, BR) observed 1600 UTC 20 February 2020
Temperature: 23.0°C (73°F)
Dewpoint: 22.0°C (72°F) [RH = 94%]
Pressure (altimeter): 29.85 inches Hg (1011.0 mb)
Winds: from the E (100 degrees) at 14 MPH (12 knots; 6.2 m/s)
Visibility: 1.24 miles (2.00 km)
Ceiling: 300 feet AGL
Clouds: overcast cloud deck at 300 feet AGL
few clouds at 1000 feet AGL
Weather: +TSRA  (heavy rain associated with thunderstorm(s))

Forecast for: SBMO (MACEIO/CAMPO PAL, BR)
Text: TAF SBMO 201600Z 2018/2118 11009KT 9999 FEW030 TN23/2109Z TX32/2116Z
Forecast period: 1800 UTC 20 February 2020 to 0200 UTC 21 February 2020
Forecast type: FROM: standard forecast or significant change
Winds: from the ESE (110 degrees) at 10 MPH (9 knots; 4.6 m/s)
Visibility: 6 or more miles 10+ km)
Ceiling: at least 12,000 feet AGL
Clouds: few clouds at 3000 feet AGL
Weather: no significant weather forecast for this period
Text: BECMG 2102/2104 27005KT RMK PED
Forecast period: 0200 to 1800 UTC 21 February 2020
Forecast type: BECOMING: Conditions expected to become as follows by 0400 UTC 21 February 2020
Winds: from the W (270 degrees) at 6 MPH (5 knots; 2.6 m/s)
Visibility: 6 or more miles 10+ km)
Ceiling: at least 12,000 feet AGL
Clouds: few clouds at 3000 feet AGL
Weather: no significant weather forecast for this period